sensor_id;sensor_type;location;lat;lon;timestamp;temperature;humidity
947;DHT22;460;48.734;9.152;2024-02-26T00:00:09;7.10;90.10
947;DHT22;460;48.734;9.152;2024-02-26T00:02:36;7.20;89.70
947;DHT22;460;48.734;9.152;2024-02-26T00:05:04;7.10;89.70
947;DHT22;460;48.734;9.152;2024-02-26T00:07:31;7.00;90.20
947;DHT22;460;48.734;9.152;2024-02-26T00:09:58;7.00;90.20
947;DHT22;460;48.734;9.152;2024-02-26T00:12:25;7.00;90.70
947;DHT22;460;48.734;9.152;2024-02-26T00:14:52;7.00;90.70
947;DHT22;460;48.734;9.152;2024-02-26T00:17:20;7.10;90.50
947;DHT22;460;48.734;9.152;2024-02-26T00:19:47;7.20;90.20
947;DHT22;460;48.734;9.152;2024-02-26T00:22:14;7.10;90.20
947;DHT22;460;48.734;9.152;2024-02-26T00:24:41;7.20;90.20
947;DHT22;460;48.734;9.152;2024-02-26T00:27:07;7.20;90.10
947;DHT22;460;48.734;9.152;2024-02-26T00:29:34;7.30;89.90
947;DHT22;460;48.734;9.152;2024-02-26T00:32:00;7.30;89.70
947;DHT22;460;48.734;9.152;2024-02-26T00:34:28;7.20;89.90
947;DHT22;460;48.734;9.152;2024-02-26T00:36:55;7.40;89.60
947;DHT22;460;48.734;9.152;2024-02-26T00:39:22;7.20;89.80
947;DHT22;460;48.734;9.152;2024-02-26T00:41:48;7.10;90.30
947;DHT22;460;48.734;9.152;2024-02-26T00:44:17;7.00;90.30
947;DHT22;460;48.734;9.152;2024-02-26T00:46:43;7.00;90.30
947;DHT22;460;48.734;9.152;2024-02-26T00:49:10;7.00;90.50
947;DHT22;460;48.734;9.152;2024-02-26T00:51:38;6.90;90.60
947;DHT22;460;48.734;9.152;2024-02-26T00:54:05;6.90;90.40
947;DHT22;460;48.734;9.152;2024-02-26T00:56:32;6.90;90.40
947;DHT22;460;48.734;9.152;2024-02-26T00:58:59;6.90;90.50
947;DHT22;460;48.734;9.152;2024-02-26T01:01:26;8.00;91.20
947;DHT22;460;48.734;9.152;2024-02-26T01:03:52;6.90;90.60
947;DHT22;460;48.734;9.152;2024-02-26T01:06:19;7.00;90.70
947;DHT22;460;48.734;9.152;2024-02-26T01:08:49;7.00;90.90
947;DHT22;460;48.734;9.152;2024-02-26T01:11:16;6.90;90.80
947;DHT22;460;48.734;9.152;2024-02-26T01:13:42;6.90;90.90
947;DHT22;460;48.734;9.152;2024-02-26T01:16:09;6.80;92.50
947;DHT22;460;48.734;9.152;2024-02-26T01:18:37;6.90;90.70
947;DHT22;460;48.734;9.152;2024-02-26T01:21:04;6.90;91.10
947;DHT22;460;48.734;9.152;2024-02-26T01:23:32;6.90;90.80
947;DHT22;460;48.734;9.152;2024-02-26T01:26:00;7.00;90.90
947;DHT22;460;48.734;9.152;2024-02-26T01:28:28;7.00;91.00
947;DHT22;460;48.734;9.152;2024-02-26T01:30:55;7.00;91.00
947;DHT22;460;48.734;9.152;2024-02-26T01:35:49;7.00;90.70
947;DHT22;460;48.734;9.152;2024-02-26T01:38:16;6.80;90.50
947;DHT22;460;48.734;9.152;2024-02-26T01:40:43;6.80;91.00
947;DHT22;460;48.734;9.152;2024-02-26T01:43:11;6.70;91.00
947;DHT22;460;48.734;9.152;2024-02-26T01:45:37;6.80;91.50
947;DHT22;460;48.734;9.152;2024-02-26T01:48:05;6.90;91.50
947;DHT22;460;48.734;9.152;2024-02-26T01:50:32;6.90;91.50
947;DHT22;460;48.734;9.152;2024-02-26T01:53:00;6.90;91.30
947;DHT22;460;48.734;9.152;2024-02-26T01:55:27;6.70;91.10
947;DHT22;460;48.734;9.152;2024-02-26T01:57:54;6.80;91.70
947;DHT22;460;48.734;9.152;2024-02-26T02:00:23;6.70;91.80
947;DHT22;460;48.734;9.152;2024-02-26T02:02:50;6.70;91.80
947;DHT22;460;48.734;9.152;2024-02-26T02:05:18;6.80;91.70
947;DHT22;460;48.734;9.152;2024-02-26T02:07:47;6.80;91.90
947;DHT22;460;48.734;9.152;2024-02-26T02:10:15;6.80;91.70
947;DHT22;460;48.734;9.152;2024-02-26T02:12:43;6.90;91.00
947;DHT22;460;48.734;9.152;2024-02-26T02:15:11;6.90;90.60
947;DHT22;460;48.734;9.152;2024-02-26T02:17:39;7.00;96.00
947;DHT22;460;48.734;9.152;2024-02-26T02:20:09;6.90;88.80
947;DHT22;460;48.734;9.152;2024-02-26T02:22:37;6.90;87.70
947;DHT22;460;48.734;9.152;2024-02-26T02:25:05;6.90;86.90
947;DHT22;460;48.734;9.152;2024-02-26T02:27:33;6.90;88.70
947;DHT22;460;48.734;9.152;2024-02-26T02:30:01;6.90;87.00
947;DHT22;460;48.734;9.152;2024-02-26T02:32:29;6.80;87.20
947;DHT22;460;48.734;9.152;2024-02-26T02:34:57;6.90;87.90
947;DHT22;460;48.734;9.152;2024-02-26T02:37:25;7.00;87.70
947;DHT22;460;48.734;9.152;2024-02-26T02:39:54;6.90;88.60
947;DHT22;460;48.734;9.152;2024-02-26T02:42:23;6.90;90.10
947;DHT22;460;48.734;9.152;2024-02-26T02:44:51;6.90;87.20
947;DHT22;460;48.734;9.152;2024-02-26T02:47:18;6.80;88.60
947;DHT22;460;48.734;9.152;2024-02-26T02:49:46;6.80;90.10
947;DHT22;460;48.734;9.152;2024-02-26T02:52:14;6.80;90.40
947;DHT22;460;48.734;9.152;2024-02-26T02:54:41;6.80;90.50
947;DHT22;460;48.734;9.152;2024-02-26T02:57:10;6.80;90.40
947;DHT22;460;48.734;9.152;2024-02-26T02:59:39;6.80;90.40
947;DHT22;460;48.734;9.152;2024-02-26T03:02:06;6.80;91.00
947;DHT22;460;48.734;9.152;2024-02-26T03:04:33;7.30;94.60
947;DHT22;460;48.734;9.152;2024-02-26T03:06:59;6.80;91.90
947;DHT22;460;48.734;9.152;2024-02-26T03:09:26;6.70;91.90
947;DHT22;460;48.734;9.152;2024-02-26T03:11:53;6.70;92.40
947;DHT22;460;48.734;9.152;2024-02-26T03:14:21;6.70;91.60
947;DHT22;460;48.734;9.152;2024-02-26T03:16:48;6.90;97.10
947;DHT22;460;48.734;9.152;2024-02-26T03:19:15;6.70;92.50
947;DHT22;460;48.734;9.152;2024-02-26T03:21:42;6.70;91.70
947;DHT22;460;48.734;9.152;2024-02-26T03:24:09;6.90;90.90
947;DHT22;460;48.734;9.152;2024-02-26T03:26:37;7.20;90.20
947;DHT22;460;48.734;9.152;2024-02-26T03:29:05;7.30;90.10
947;DHT22;460;48.734;9.152;2024-02-26T03:31:33;7.30;90.60
947;DHT22;460;48.734;9.152;2024-02-26T03:34:01;7.30;90.10
947;DHT22;460;48.734;9.152;2024-02-26T03:36:28;7.40;89.70
947;DHT22;460;48.734;9.152;2024-02-26T03:38:55;7.40;88.30
947;DHT22;460;48.734;9.152;2024-02-26T03:41:23;7.40;90.10
947;DHT22;460;48.734;9.152;2024-02-26T03:43:50;7.40;90.40
947;DHT22;460;48.734;9.152;2024-02-26T03:46:17;7.30;90.90
947;DHT22;460;48.734;9.152;2024-02-26T03:48:46;7.30;91.00
947;DHT22;460;48.734;9.152;2024-02-26T03:51:13;7.30;90.10
947;DHT22;460;48.734;9.152;2024-02-26T03:53:40;7.20;91.30
947;DHT22;460;48.734;9.152;2024-02-26T03:56:08;7.20;92.40
947;DHT22;460;48.734;9.152;2024-02-26T03:58:34;7.10;91.80
947;DHT22;460;48.734;9.152;2024-02-26T04:01:02;7.20;92.20
947;DHT22;460;48.734;9.152;2024-02-26T04:03:29;7.20;92.10
947;DHT22;460;48.734;9.152;2024-02-26T04:05:57;7.20;92.80
947;DHT22;460;48.734;9.152;2024-02-26T04:08:24;7.30;92.40
947;DHT22;460;48.734;9.152;2024-02-26T04:10:50;7.30;91.60
947;DHT22;460;48.734;9.152;2024-02-26T04:13:17;7.30;91.20
947;DHT22;460;48.734;9.152;2024-02-26T04:15:44;7.30;91.70
947;DHT22;460;48.734;9.152;2024-02-26T04:18:13;7.30;91.50
947;DHT22;460;48.734;9.152;2024-02-26T04:20:40;7.30;91.60
947;DHT22;460;48.734;9.152;2024-02-26T04:23:10;7.20;91.10
947;DHT22;460;48.734;9.152;2024-02-26T04:25:39;7.20;91.30
947;DHT22;460;48.734;9.152;2024-02-26T04:28:07;7.30;90.90
947;DHT22;460;48.734;9.152;2024-02-26T04:30:34;7.30;90.70
947;DHT22;460;48.734;9.152;2024-02-26T04:33:01;7.40;90.70
947;DHT22;460;48.734;9.152;2024-02-26T04:35:28;7.30;90.40
947;DHT22;460;48.734;9.152;2024-02-26T04:37:55;7.10;90.70
947;DHT22;460;48.734;9.152;2024-02-26T04:40:23;7.20;90.90
947;DHT22;460;48.734;9.152;2024-02-26T04:42:50;7.20;90.70
947;DHT22;460;48.734;9.152;2024-02-26T04:45:17;6.90;91.60
947;DHT22;460;48.734;9.152;2024-02-26T04:47:44;7.10;90.90
947;DHT22;460;48.734;9.152;2024-02-26T04:50:10;7.20;90.70
947;DHT22;460;48.734;9.152;2024-02-26T04:52:37;7.20;90.80
947;DHT22;460;48.734;9.152;2024-02-26T04:55:04;7.10;90.90
947;DHT22;460;48.734;9.152;2024-02-26T04:57:32;7.10;91.20
947;DHT22;460;48.734;9.152;2024-02-26T04:59:59;7.20;90.90
947;DHT22;460;48.734;9.152;2024-02-26T05:02:26;7.40;90.50
947;DHT22;460;48.734;9.152;2024-02-26T05:04:53;7.10;90.40
947;DHT22;460;48.734;9.152;2024-02-26T05:07:19;7.20;90.50
947;DHT22;460;48.734;9.152;2024-02-26T05:09:46;7.20;90.70
947;DHT22;460;48.734;9.152;2024-02-26T05:12:15;7.00;90.60
947;DHT22;460;48.734;9.152;2024-02-26T05:14:43;7.00;90.60
947;DHT22;460;48.734;9.152;2024-02-26T05:17:10;6.90;90.90
947;DHT22;460;48.734;9.152;2024-02-26T05:19:36;6.90;91.20
947;DHT22;460;48.734;9.152;2024-02-26T05:22:03;6.90;91.50
947;DHT22;460;48.734;9.152;2024-02-26T05:24:30;6.90;91.40
947;DHT22;460;48.734;9.152;2024-02-26T05:26:57;6.80;92.20
947;DHT22;460;48.734;9.152;2024-02-26T05:29:23;6.80;92.80
947;DHT22;460;48.734;9.152;2024-02-26T05:31:52;6.80;92.80
947;DHT22;460;48.734;9.152;2024-02-26T05:34:19;6.80;93.10
947;DHT22;460;48.734;9.152;2024-02-26T05:36:47;6.70;93.30
947;DHT22;460;48.734;9.152;2024-02-26T05:39:14;6.60;93.30
947;DHT22;460;48.734;9.152;2024-02-26T05:41:41;6.60;93.60
947;DHT22;460;48.734;9.152;2024-02-26T05:44:08;6.60;94.10
947;DHT22;460;48.734;9.152;2024-02-26T05:46:36;6.70;94.50
947;DHT22;460;48.734;9.152;2024-02-26T05:49:04;6.60;94.40
947;DHT22;460;48.734;9.152;2024-02-26T05:51:30;6.70;94.40
947;DHT22;460;48.734;9.152;2024-02-26T05:53:57;6.90;94.30
947;DHT22;460;48.734;9.152;2024-02-26T05:56:24;7.00;94.60
947;DHT22;460;48.734;9.152;2024-02-26T05:58:51;6.60;96.10
947;DHT22;460;48.734;9.152;2024-02-26T06:01:20;6.40;96.40
947;DHT22;460;48.734;9.152;2024-02-26T06:03:46;6.40;97.40
947;DHT22;460;48.734;9.152;2024-02-26T06:06:15;6.30;98.20
947;DHT22;460;48.734;9.152;2024-02-26T06:08:41;6.20;99.90
947;DHT22;460;48.734;9.152;2024-02-26T06:11:08;6.20;98.90
947;DHT22;460;48.734;9.152;2024-02-26T06:13:35;6.10;99.90
947;DHT22;460;48.734;9.152;2024-02-26T06:16:02;6.10;99.30
947;DHT22;460;48.734;9.152;2024-02-26T06:18:30;6.00;99.70
947;DHT22;460;48.734;9.152;2024-02-26T06:20:57;6.10;99.50
947;DHT22;460;48.734;9.152;2024-02-26T06:23:25;6.10;99.90
947;DHT22;460;48.734;9.152;2024-02-26T06:25:52;6.10;99.90
947;DHT22;460;48.734;9.152;2024-02-26T06:28:19;6.10;99.90
947;DHT22;460;48.734;9.152;2024-02-26T06:30:46;6.10;99.70
947;DHT22;460;48.734;9.152;2024-02-26T06:33:13;6.10;99.60
947;DHT22;460;48.734;9.152;2024-02-26T06:35:39;6.00;99.60
947;DHT22;460;48.734;9.152;2024-02-26T06:38:07;6.00;99.50
947;DHT22;460;48.734;9.152;2024-02-26T06:40:36;6.00;99.40
947;DHT22;460;48.734;9.152;2024-02-26T06:43:03;5.90;99.70
947;DHT22;460;48.734;9.152;2024-02-26T06:45:29;5.90;99.90
947;DHT22;460;48.734;9.152;2024-02-26T06:47:56;5.80;99.90
947;DHT22;460;48.734;9.152;2024-02-26T06:50:23;5.80;99.90
947;DHT22;460;48.734;9.152;2024-02-26T06:52:50;5.90;99.90
947;DHT22;460;48.734;9.152;2024-02-26T06:55:17;5.90;99.90
947;DHT22;460;48.734;9.152;2024-02-26T06:57:45;5.90;99.90
947;DHT22;460;48.734;9.152;2024-02-26T07:00:13;6.00;99.90
947;DHT22;460;48.734;9.152;2024-02-26T07:02:41;6.00;99.90
947;DHT22;460;48.734;9.152;2024-02-26T07:05:08;6.20;99.90
947;DHT22;460;48.734;9.152;2024-02-26T07:07:35;6.30;99.90
947;DHT22;460;48.734;9.152;2024-02-26T07:10:02;6.30;99.90
947;DHT22;460;48.734;9.152;2024-02-26T07:12:31;6.40;99.90
947;DHT22;460;48.734;9.152;2024-02-26T07:14:59;6.40;99.90
947;DHT22;460;48.734;9.152;2024-02-26T07:17:26;6.50;99.90
947;DHT22;460;48.734;9.152;2024-02-26T07:19:53;6.50;99.60
947;DHT22;460;48.734;9.152;2024-02-26T07:22:19;6.60;99.90
947;DHT22;460;48.734;9.152;2024-02-26T07:24:46;6.70;99.90
947;DHT22;460;48.734;9.152;2024-02-26T07:27:13;6.70;99.80
947;DHT22;460;48.734;9.152;2024-02-26T07:29:43;6.70;99.70
947;DHT22;460;48.734;9.152;2024-02-26T07:32:11;6.80;99.20
947;DHT22;460;48.734;9.152;2024-02-26T07:34:37;6.90;98.40
947;DHT22;460;48.734;9.152;2024-02-26T07:37:07;6.90;97.50
947;DHT22;460;48.734;9.152;2024-02-26T07:39:34;7.00;97.60
947;DHT22;460;48.734;9.152;2024-02-26T07:42:00;7.00;97.90
947;DHT22;460;48.734;9.152;2024-02-26T07:44:27;7.00;97.60
947;DHT22;460;48.734;9.152;2024-02-26T07:46:54;7.00;97.50
947;DHT22;460;48.734;9.152;2024-02-26T07:49:22;7.10;97.80
947;DHT22;460;48.734;9.152;2024-02-26T07:51:49;7.20;97.60
947;DHT22;460;48.734;9.152;2024-02-26T07:54:16;7.20;97.20
947;DHT22;460;48.734;9.152;2024-02-26T07:56:43;7.20;97.40
947;DHT22;460;48.734;9.152;2024-02-26T07:59:10;7.10;99.60
947;DHT22;460;48.734;9.152;2024-02-26T08:01:37;7.30;97.30
947;DHT22;460;48.734;9.152;2024-02-26T08:04:04;7.50;96.70
947;DHT22;460;48.734;9.152;2024-02-26T08:06:33;7.40;96.90
947;DHT22;460;48.734;9.152;2024-02-26T08:08:59;7.50;96.90
947;DHT22;460;48.734;9.152;2024-02-26T08:11:26;7.50;96.90
947;DHT22;460;48.734;9.152;2024-02-26T08:13:53;7.50;96.50
947;DHT22;460;48.734;9.152;2024-02-26T08:16:20;7.70;96.30
947;DHT22;460;48.734;9.152;2024-02-26T08:18:47;7.80;95.80
947;DHT22;460;48.734;9.152;2024-02-26T08:21:14;7.80;95.40
947;DHT22;460;48.734;9.152;2024-02-26T08:23:43;7.90;95.20
947;DHT22;460;48.734;9.152;2024-02-26T08:26:10;6.10;97.50
947;DHT22;460;48.734;9.152;2024-02-26T08:28:37;7.70;94.70
947;DHT22;460;48.734;9.152;2024-02-26T08:31:04;7.70;94.30
947;DHT22;460;48.734;9.152;2024-02-26T08:33:31;7.70;94.60
947;DHT22;460;48.734;9.152;2024-02-26T08:36:02;7.70;94.20
947;DHT22;460;48.734;9.152;2024-02-26T08:38:30;7.70;94.30
947;DHT22;460;48.734;9.152;2024-02-26T08:40:58;7.80;94.30
947;DHT22;460;48.734;9.152;2024-02-26T08:43:25;7.90;93.80
947;DHT22;460;48.734;9.152;2024-02-26T08:45:52;7.90;93.60
947;DHT22;460;48.734;9.152;2024-02-26T08:48:19;8.00;93.10
947;DHT22;460;48.734;9.152;2024-02-26T08:50:45;8.00;93.30
947;DHT22;460;48.734;9.152;2024-02-26T08:53:12;8.10;93.20
947;DHT22;460;48.734;9.152;2024-02-26T08:55:39;8.20;92.70
947;DHT22;460;48.734;9.152;2024-02-26T08:58:07;8.10;93.00
947;DHT22;460;48.734;9.152;2024-02-26T09:00:34;8.20;92.10
947;DHT22;460;48.734;9.152;2024-02-26T09:03:01;8.20;92.50
947;DHT22;460;48.734;9.152;2024-02-26T09:05:27;8.20;92.50
947;DHT22;460;48.734;9.152;2024-02-26T09:07:54;8.20;93.00
947;DHT22;460;48.734;9.152;2024-02-26T09:10:21;8.20;92.80
947;DHT22;460;48.734;9.152;2024-02-26T09:12:48;8.30;92.20
947;DHT22;460;48.734;9.152;2024-02-26T09:15:17;8.30;91.40
947;DHT22;460;48.734;9.152;2024-02-26T09:17:44;8.30;91.90
947;DHT22;460;48.734;9.152;2024-02-26T09:20:11;8.30;92.10
947;DHT22;460;48.734;9.152;2024-02-26T09:22:41;8.40;92.50
947;DHT22;460;48.734;9.152;2024-02-26T09:25:08;8.40;92.10
947;DHT22;460;48.734;9.152;2024-02-26T09:27:35;8.40;91.60
947;DHT22;460;48.734;9.152;2024-02-26T09:30:02;8.50;91.70
947;DHT22;460;48.734;9.152;2024-02-26T09:32:31;8.50;90.10
947;DHT22;460;48.734;9.152;2024-02-26T09:34:58;8.60;90.30
947;DHT22;460;48.734;9.152;2024-02-26T09:37:25;8.60;91.30
947;DHT22;460;48.734;9.152;2024-02-26T09:39:52;8.70;91.30
947;DHT22;460;48.734;9.152;2024-02-26T09:42:19;8.70;91.20
947;DHT22;460;48.734;9.152;2024-02-26T09:44:46;8.70;91.50
947;DHT22;460;48.734;9.152;2024-02-26T09:47:14;9.00;94.30
947;DHT22;460;48.734;9.152;2024-02-26T09:49:44;8.80;92.00
947;DHT22;460;48.734;9.152;2024-02-26T09:52:14;8.90;91.80
947;DHT22;460;48.734;9.152;2024-02-26T09:54:42;9.10;91.50
947;DHT22;460;48.734;9.152;2024-02-26T09:57:09;9.20;90.40
947;DHT22;460;48.734;9.152;2024-02-26T09:59:42;9.40;90.50
947;DHT22;460;48.734;9.152;2024-02-26T10:02:11;9.50;90.80
947;DHT22;460;48.734;9.152;2024-02-26T10:04:38;9.60;91.10
947;DHT22;460;48.734;9.152;2024-02-26T10:07:10;9.70;91.10
947;DHT22;460;48.734;9.152;2024-02-26T10:09:37;9.80;90.90
947;DHT22;460;48.734;9.152;2024-02-26T10:12:05;10.00;87.60
947;DHT22;460;48.734;9.152;2024-02-26T10:14:33;10.00;86.20
947;DHT22;460;48.734;9.152;2024-02-26T10:17:00;10.00;86.40
947;DHT22;460;48.734;9.152;2024-02-26T10:19:28;10.10;86.50
947;DHT22;460;48.734;9.152;2024-02-26T10:21:59;10.20;85.40
947;DHT22;460;48.734;9.152;2024-02-26T10:24:29;10.30;84.00
947;DHT22;460;48.734;9.152;2024-02-26T10:26:56;10.50;82.70
947;DHT22;460;48.734;9.152;2024-02-26T10:29:24;10.60;83.40
947;DHT22;460;48.734;9.152;2024-02-26T10:31:51;10.60;84.10
947;DHT22;460;48.734;9.152;2024-02-26T10:34:19;10.70;83.10
947;DHT22;460;48.734;9.152;2024-02-26T10:36:46;10.70;83.90
947;DHT22;460;48.734;9.152;2024-02-26T10:39:13;10.80;84.80
947;DHT22;460;48.734;9.152;2024-02-26T10:41:42;10.70;85.40
947;DHT22;460;48.734;9.152;2024-02-26T10:44:09;10.80;85.80
947;DHT22;460;48.734;9.152;2024-02-26T10:46:37;10.80;85.10
947;DHT22;460;48.734;9.152;2024-02-26T10:49:04;11.00;84.70
947;DHT22;460;48.734;9.152;2024-02-26T10:51:34;10.90;85.20
947;DHT22;460;48.734;9.152;2024-02-26T10:54:05;10.70;86.80
947;DHT22;460;48.734;9.152;2024-02-26T10:56:34;10.60;87.50
947;DHT22;460;48.734;9.152;2024-02-26T10:59:07;10.70;87.60
947;DHT22;460;48.734;9.152;2024-02-26T11:01:35;10.70;87.50
947;DHT22;460;48.734;9.152;2024-02-26T11:04:04;10.70;87.70
947;DHT22;460;48.734;9.152;2024-02-26T11:06:31;10.50;89.60
947;DHT22;460;48.734;9.152;2024-02-26T11:09:01;10.80;84.90
947;DHT22;460;48.734;9.152;2024-02-26T11:11:29;11.00;83.80
947;DHT22;460;48.734;9.152;2024-02-26T11:13:57;10.90;83.50
947;DHT22;460;48.734;9.152;2024-02-26T11:16:26;10.90;83.40
947;DHT22;460;48.734;9.152;2024-02-26T11:18:55;11.00;81.20
947;DHT22;460;48.734;9.152;2024-02-26T11:21:22;11.00;81.60
947;DHT22;460;48.734;9.152;2024-02-26T11:23:53;11.00;81.80
947;DHT22;460;48.734;9.152;2024-02-26T11:26:22;10.90;83.10
947;DHT22;460;48.734;9.152;2024-02-26T11:28:51;10.90;83.00
947;DHT22;460;48.734;9.152;2024-02-26T11:31:19;10.90;83.60
947;DHT22;460;48.734;9.152;2024-02-26T11:33:54;11.10;83.80
947;DHT22;460;48.734;9.152;2024-02-26T11:36:21;11.20;82.70
947;DHT22;460;48.734;9.152;2024-02-26T11:38:50;11.10;81.80
947;DHT22;460;48.734;9.152;2024-02-26T11:41:18;11.10;80.90
947;DHT22;460;48.734;9.152;2024-02-26T11:43:52;11.10;80.90
947;DHT22;460;48.734;9.152;2024-02-26T11:46:25;11.20;80.70
947;DHT22;460;48.734;9.152;2024-02-26T11:48:54;11.20;80.90
947;DHT22;460;48.734;9.152;2024-02-26T11:51:25;11.30;80.30
947;DHT22;460;48.734;9.152;2024-02-26T11:53:53;11.50;77.90
947;DHT22;460;48.734;9.152;2024-02-26T11:56:21;11.50;78.30
947;DHT22;460;48.734;9.152;2024-02-26T11:58:53;11.50;78.70
947;DHT22;460;48.734;9.152;2024-02-26T12:01:40;11.60;78.80
947;DHT22;460;48.734;9.152;2024-02-26T12:04:12;11.60;78.90
947;DHT22;460;48.734;9.152;2024-02-26T12:06:42;11.70;78.40
947;DHT22;460;48.734;9.152;2024-02-26T12:09:09;11.80;78.90
947;DHT22;460;48.734;9.152;2024-02-26T12:11:37;11.70;78.20
947;DHT22;460;48.734;9.152;2024-02-26T12:14:05;11.80;78.40
947;DHT22;460;48.734;9.152;2024-02-26T12:16:37;11.70;78.50
947;DHT22;460;48.734;9.152;2024-02-26T12:19:05;11.70;77.80
947;DHT22;460;48.734;9.152;2024-02-26T12:21:35;11.60;78.90
947;DHT22;460;48.734;9.152;2024-02-26T12:24:12;11.60;78.50
947;DHT22;460;48.734;9.152;2024-02-26T12:26:40;11.70;79.40
947;DHT22;460;48.734;9.152;2024-02-26T12:29:07;11.70;79.10
947;DHT22;460;48.734;9.152;2024-02-26T12:31:35;11.70;78.30
947;DHT22;460;48.734;9.152;2024-02-26T12:34:04;11.70;79.00
947;DHT22;460;48.734;9.152;2024-02-26T12:36:31;11.70;79.00
947;DHT22;460;48.734;9.152;2024-02-26T12:39:01;11.70;78.70
947;DHT22;460;48.734;9.152;2024-02-26T12:41:28;11.90;80.00
947;DHT22;460;48.734;9.152;2024-02-26T12:43:55;12.10;79.80
947;DHT22;460;48.734;9.152;2024-02-26T12:46:23;12.20;79.10
947;DHT22;460;48.734;9.152;2024-02-26T12:48:49;12.40;77.80
947;DHT22;460;48.734;9.152;2024-02-26T12:51:17;12.50;78.30
947;DHT22;460;48.734;9.152;2024-02-26T12:53:44;12.60;77.30
947;DHT22;460;48.734;9.152;2024-02-26T12:56:13;12.60;78.00
947;DHT22;460;48.734;9.152;2024-02-26T12:58:40;12.60;77.40
947;DHT22;460;48.734;9.152;2024-02-26T13:01:07;12.50;76.80
947;DHT22;460;48.734;9.152;2024-02-26T13:03:40;12.60;76.70
947;DHT22;460;48.734;9.152;2024-02-26T13:06:08;12.70;77.40
947;DHT22;460;48.734;9.152;2024-02-26T13:08:35;12.70;77.10
947;DHT22;460;48.734;9.152;2024-02-26T13:11:01;12.70;77.30
947;DHT22;460;48.734;9.152;2024-02-26T13:13:30;12.70;77.50
947;DHT22;460;48.734;9.152;2024-02-26T13:16:02;12.80;78.30
947;DHT22;460;48.734;9.152;2024-02-26T13:18:29;12.80;77.90
947;DHT22;460;48.734;9.152;2024-02-26T13:21:07;12.80;77.90
947;DHT22;460;48.734;9.152;2024-02-26T13:23:34;12.80;78.20
947;DHT22;460;48.734;9.152;2024-02-26T13:26:01;12.80;78.10
947;DHT22;460;48.734;9.152;2024-02-26T13:28:30;12.80;77.90
947;DHT22;460;48.734;9.152;2024-02-26T13:30:57;12.90;77.70
947;DHT22;460;48.734;9.152;2024-02-26T13:33:26;12.90;77.40
947;DHT22;460;48.734;9.152;2024-02-26T13:35:54;13.00;78.40
947;DHT22;460;48.734;9.152;2024-02-26T13:38:21;13.10;78.20
947;DHT22;460;48.734;9.152;2024-02-26T13:40:48;13.10;84.20
947;DHT22;460;48.734;9.152;2024-02-26T13:43:14;13.00;78.50
947;DHT22;460;48.734;9.152;2024-02-26T13:45:43;13.00;77.50
947;DHT22;460;48.734;9.152;2024-02-26T13:48:10;13.10;77.80
947;DHT22;460;48.734;9.152;2024-02-26T13:50:37;13.10;78.00
947;DHT22;460;48.734;9.152;2024-02-26T13:53:06;13.10;77.90
947;DHT22;460;48.734;9.152;2024-02-26T13:55:33;13.10;76.80
947;DHT22;460;48.734;9.152;2024-02-26T13:58:00;13.20;77.90
947;DHT22;460;48.734;9.152;2024-02-26T14:00:27;13.20;78.10
947;DHT22;460;48.734;9.152;2024-02-26T14:02:56;13.20;77.90
947;DHT22;460;48.734;9.152;2024-02-26T14:05:23;13.40;77.10
947;DHT22;460;48.734;9.152;2024-02-26T14:07:49;13.30;76.40
947;DHT22;460;48.734;9.152;2024-02-26T14:10:16;13.40;75.90
947;DHT22;460;48.734;9.152;2024-02-26T14:12:43;13.40;76.20
947;DHT22;460;48.734;9.152;2024-02-26T14:15:10;13.30;76.20
947;DHT22;460;48.734;9.152;2024-02-26T14:17:37;13.40;76.10
947;DHT22;460;48.734;9.152;2024-02-26T14:20:06;13.30;76.50
947;DHT22;460;48.734;9.152;2024-02-26T14:22:34;13.40;77.60
947;DHT22;460;48.734;9.152;2024-02-26T14:25:01;13.40;76.70
947;DHT22;460;48.734;9.152;2024-02-26T14:27:28;13.60;77.80
947;DHT22;460;48.734;9.152;2024-02-26T14:29:55;13.30;77.50
947;DHT22;460;48.734;9.152;2024-02-26T14:32:21;13.80;87.40
947;DHT22;460;48.734;9.152;2024-02-26T14:34:48;13.30;78.50
947;DHT22;460;48.734;9.152;2024-02-26T14:37:16;13.40;77.30
947;DHT22;460;48.734;9.152;2024-02-26T14:39:44;13.40;77.70
947;DHT22;460;48.734;9.152;2024-02-26T14:42:09;13.30;76.90
947;DHT22;460;48.734;9.152;2024-02-26T14:44:36;13.10;77.00
947;DHT22;460;48.734;9.152;2024-02-26T14:47:03;13.10;78.40
947;DHT22;460;48.734;9.152;2024-02-26T14:49:31;13.00;78.00
947;DHT22;460;48.734;9.152;2024-02-26T14:51:57;13.00;77.90
947;DHT22;460;48.734;9.152;2024-02-26T14:54:26;13.10;76.90
947;DHT22;460;48.734;9.152;2024-02-26T14:56:52;13.00;77.00
947;DHT22;460;48.734;9.152;2024-02-26T14:59:20;13.00;77.20
947;DHT22;460;48.734;9.152;2024-02-26T15:01:47;13.10;75.50
947;DHT22;460;48.734;9.152;2024-02-26T15:04:14;13.00;74.80
947;DHT22;460;48.734;9.152;2024-02-26T15:06:40;12.90;75.70
947;DHT22;460;48.734;9.152;2024-02-26T15:09:07;12.80;75.30
947;DHT22;460;48.734;9.152;2024-02-26T15:11:39;12.70;75.40
947;DHT22;460;48.734;9.152;2024-02-26T15:14:06;12.80;74.20
947;DHT22;460;48.734;9.152;2024-02-26T15:16:33;12.70;74.30
947;DHT22;460;48.734;9.152;2024-02-26T15:19:00;12.60;75.30
947;DHT22;460;48.734;9.152;2024-02-26T15:21:28;12.60;77.10
947;DHT22;460;48.734;9.152;2024-02-26T15:23:54;12.70;75.90
947;DHT22;460;48.734;9.152;2024-02-26T15:26:21;12.50;76.00
947;DHT22;460;48.734;9.152;2024-02-26T15:28:50;12.50;76.40
947;DHT22;460;48.734;9.152;2024-02-26T15:31:16;12.60;90.30
947;DHT22;460;48.734;9.152;2024-02-26T15:33:43;12.50;90.40
947;DHT22;460;48.734;9.152;2024-02-26T15:36:11;12.50;77.70
947;DHT22;460;48.734;9.152;2024-02-26T15:38:38;12.50;76.90
947;DHT22;460;48.734;9.152;2024-02-26T15:41:10;12.40;77.80
947;DHT22;460;48.734;9.152;2024-02-26T15:43:38;12.40;77.40
947;DHT22;460;48.734;9.152;2024-02-26T15:46:06;12.30;78.00
947;DHT22;460;48.734;9.152;2024-02-26T15:48:33;12.20;78.60
947;DHT22;460;48.734;9.152;2024-02-26T15:51:00;12.10;78.60
947;DHT22;460;48.734;9.152;2024-02-26T15:53:27;12.00;78.80
947;DHT22;460;48.734;9.152;2024-02-26T15:55:53;12.20;89.70
947;DHT22;460;48.734;9.152;2024-02-26T15:58:20;12.00;90.40
947;DHT22;460;48.734;9.152;2024-02-26T16:00:49;11.90;77.50
947;DHT22;460;48.734;9.152;2024-02-26T16:03:17;11.90;78.20
947;DHT22;460;48.734;9.152;2024-02-26T16:05:45;11.90;77.60
947;DHT22;460;48.734;9.152;2024-02-26T16:08:16;12.00;77.90
947;DHT22;460;48.734;9.152;2024-02-26T16:10:46;11.90;77.90
947;DHT22;460;48.734;9.152;2024-02-26T16:13:13;11.90;78.30
947;DHT22;460;48.734;9.152;2024-02-26T16:15:44;11.70;79.00
947;DHT22;460;48.734;9.152;2024-02-26T16:18:11;11.60;79.50
947;DHT22;460;48.734;9.152;2024-02-26T16:20:40;11.60;80.00
947;DHT22;460;48.734;9.152;2024-02-26T16:23:08;11.60;81.00
947;DHT22;460;48.734;9.152;2024-02-26T16:25:35;11.50;80.90
947;DHT22;460;48.734;9.152;2024-02-26T16:28:03;11.50;80.70
947;DHT22;460;48.734;9.152;2024-02-26T16:30:29;11.50;81.00
947;DHT22;460;48.734;9.152;2024-02-26T16:32:57;11.50;81.20
947;DHT22;460;48.734;9.152;2024-02-26T16:35:24;11.40;93.40
947;DHT22;460;48.734;9.152;2024-02-26T16:37:53;11.20;90.00
947;DHT22;460;48.734;9.152;2024-02-26T16:40:20;11.30;82.90
947;DHT22;460;48.734;9.152;2024-02-26T16:42:47;11.10;92.40
947;DHT22;460;48.734;9.152;2024-02-26T16:45:14;11.30;83.60
947;DHT22;460;48.734;9.152;2024-02-26T16:47:41;11.20;84.40